createdAt,value
2023-08-24T00:02:25.795Z,24.16
2023-08-24T00:06:29.965Z,24.14
2023-08-24T00:10:33.180Z,24.09
2023-08-24T00:14:38.091Z,24.07
2023-08-24T00:18:41.160Z,24.02
2023-08-24T00:22:44.876Z,23.96
2023-08-24T00:26:48.376Z,23.91
2023-08-24T00:30:53.284Z,23.86
2023-08-24T00:34:56.340Z,23.82
2023-08-24T00:38:59.544Z,23.80
2023-08-24T00:43:03.368Z,23.76
2023-08-24T00:47:09.142Z,23.70
2023-08-24T00:51:13.117Z,23.65
2023-08-24T00:55:17.140Z,23.61
2023-08-24T00:59:20.608Z,23.57
2023-08-24T01:03:27.212Z,23.55
2023-08-24T01:07:30.454Z,23.51
2023-08-24T01:11:45.669Z,23.44
2023-08-24T01:15:54.277Z,23.41
2023-08-24T01:20:00.636Z,23.37
2023-08-24T01:24:13.046Z,23.30
2023-08-24T01:28:19.778Z,23.27
2023-08-24T01:32:23.601Z,23.24
2023-08-24T01:36:27.053Z,23.22
2023-08-24T01:40:42.201Z,23.17
2023-08-24T01:44:52.150Z,23.11
2023-08-24T01:48:56.921Z,23.09
2023-08-24T01:53:01.156Z,23.06
2023-08-24T01:57:07.280Z,23.05
2023-08-24T02:01:14.200Z,22.98
2023-08-24T02:05:17.456Z,22.94
2023-08-24T02:09:26.667Z,22.94
2023-08-24T02:13:30.145Z,22.97
2023-08-24T02:17:35.373Z,23.00
2023-08-24T02:21:38.875Z,23.00
2023-08-24T02:25:45.399Z,22.99
2023-08-24T02:29:48.966Z,22.94
2023-08-24T02:33:55.084Z,22.92
2023-08-24T02:37:58.202Z,22.91
2023-08-24T02:42:01.655Z,22.89
2023-08-24T02:46:07.902Z,22.87
2023-08-24T02:50:13.253Z,22.83
2023-08-24T02:54:16.905Z,22.81
2023-08-24T02:58:20.377Z,22.78
2023-08-24T03:02:23.520Z,22.76
2023-08-24T03:06:28.470Z,22.74
2023-08-24T03:10:31.579Z,22.73
2023-08-24T03:14:35.026Z,22.72
2023-08-24T03:18:38.257Z,22.66
2023-08-24T03:22:43.312Z,22.61
2023-08-24T03:26:46.485Z,22.58
2023-08-24T03:30:53.520Z,22.55
2023-08-24T03:35:01.513Z,22.49
2023-08-24T03:39:06.340Z,22.48
2023-08-24T03:43:10.275Z,22.46
2023-08-24T03:47:14.226Z,22.44
2023-08-24T03:51:18.206Z,22.40
2023-08-24T03:55:24.200Z,22.34
2023-08-24T03:59:28.417Z,22.28
2023-08-24T04:03:31.562Z,22.22
2023-08-24T04:07:37.952Z,22.15
2023-08-24T04:11:44.170Z,22.15
2023-08-24T04:15:48.271Z,22.13
2023-08-24T04:19:51.394Z,22.13
2023-08-24T04:23:56.203Z,22.12
2023-08-24T04:28:00.888Z,22.12
2023-08-24T04:32:05.858Z,22.12
2023-08-24T04:36:09.588Z,22.10
2023-08-24T04:40:14.094Z,22.10
2023-08-24T04:44:18.542Z,22.09
2023-08-24T04:48:22.794Z,22.08
2023-08-24T04:52:25.852Z,22.06
2023-08-24T04:56:29.413Z,22.07
2023-08-24T05:00:34.480Z,22.08
2023-08-24T05:04:38.398Z,22.09
2023-08-24T05:08:41.495Z,22.08
2023-08-24T05:12:45.189Z,22.11
2023-08-24T05:16:49.732Z,22.11
2023-08-24T05:20:53.594Z,22.14
2023-08-24T05:24:57.019Z,22.15
2023-08-24T05:29:00.841Z,22.16
2023-08-24T05:33:05.944Z,22.20
2023-08-24T05:37:09.860Z,22.21
2023-08-24T05:41:12.918Z,22.25
2023-08-24T05:45:16.944Z,22.28
2023-08-24T05:49:21.532Z,22.31
2023-08-24T05:53:25.359Z,22.34
2023-08-24T05:57:28.859Z,22.41
2023-08-24T06:01:32.162Z,22.47
2023-08-24T06:05:37.256Z,22.54
2023-08-24T06:09:41.030Z,22.62
2023-08-24T06:13:47.549Z,22.72
2023-08-24T06:17:51.352Z,22.80
2023-08-24T06:21:56.250Z,22.91
2023-08-24T06:25:59.951Z,22.99
2023-08-24T06:30:03.396Z,23.08
2023-08-24T06:34:11.395Z,23.15
2023-08-24T06:38:16.093Z,23.25
2023-08-24T06:42:19.871Z,23.36
2023-08-24T06:46:23.710Z,23.44
2023-08-24T06:50:27.695Z,23.56
2023-08-24T06:54:32.567Z,23.71
2023-08-24T06:58:36.491Z,23.82
2023-08-24T07:02:39.644Z,23.95
2023-08-24T07:06:45.361Z,24.08
2023-08-24T07:10:49.813Z,24.18
2023-08-24T07:14:54.016Z,24.28
2023-08-24T07:18:57.132Z,24.39
2023-08-24T07:23:01.115Z,24.47
2023-08-24T07:27:05.828Z,24.59
2023-08-24T07:31:12.161Z,24.72
2023-08-24T07:35:15.543Z,24.84
2023-08-24T07:39:19.763Z,24.97
2023-08-24T07:43:24.272Z,25.05
2023-08-24T07:47:28.222Z,25.11
2023-08-24T07:51:31.247Z,25.17
2023-08-24T07:55:35.324Z,25.26
2023-08-24T07:59:40.127Z,25.36
2023-08-24T08:03:44.080Z,25.47
2023-08-24T08:07:47.236Z,25.58
2023-08-24T08:11:51.201Z,25.69
2023-08-24T08:15:55.791Z,25.76
2023-08-24T08:20:00.058Z,25.85
2023-08-24T08:24:03.090Z,25.97
2023-08-24T08:28:07.100Z,26.10
2023-08-24T08:32:13.385Z,26.26
2023-08-24T08:36:17.277Z,26.38
2023-08-24T08:40:20.487Z,26.52
2023-08-24T08:44:25.541Z,26.67
2023-08-24T08:48:32.313Z,26.80
2023-08-24T08:52:36.505Z,26.89
2023-08-24T08:56:39.846Z,26.98
2023-08-24T09:00:44.091Z,27.03
2023-08-24T09:04:51.094Z,27.12
2023-08-24T09:08:55.852Z,27.21
2023-08-24T09:12:58.966Z,27.31
2023-08-24T09:17:02.605Z,27.43
2023-08-24T09:21:12.130Z,27.58
2023-08-24T09:25:15.947Z,27.69
2023-08-24T09:29:19.100Z,27.80
2023-08-24T09:33:26.572Z,27.84
2023-08-24T09:37:34.813Z,27.97
2023-08-24T09:41:41.781Z,28.10
2023-08-24T09:45:52.331Z,28.15
2023-08-24T09:49:55.892Z,28.19
2023-08-24T09:54:01.252Z,28.27
2023-08-24T09:58:06.697Z,28.41
2023-08-24T10:02:18.444Z,28.51
2023-08-24T10:06:24.033Z,28.64
2023-08-24T10:10:31.696Z,28.70
2023-08-24T10:14:41.104Z,28.79
2023-08-24T10:18:44.593Z,28.94
2023-08-24T10:22:50.570Z,29.05
2023-08-24T10:26:56.453Z,29.13
2023-08-24T10:31:02.161Z,29.20
2023-08-24T10:35:06.808Z,29.25
2023-08-24T10:39:11.797Z,29.21
2023-08-24T10:43:16.243Z,29.24
2023-08-24T10:47:22.208Z,29.28
2023-08-24T10:51:27.868Z,29.29
2023-08-24T10:55:32.944Z,29.29
2023-08-24T10:59:50.659Z,29.36
2023-08-24T11:03:58.462Z,29.41
2023-08-24T11:08:03.224Z,29.39
2023-08-24T11:12:07.397Z,29.47
2023-08-24T11:16:40.999Z,29.61
2023-08-24T11:20:46.595Z,29.69
2023-08-24T11:24:49.810Z,29.77
2023-08-24T11:28:56.360Z,29.86
2023-08-24T11:33:01.098Z,29.93
2023-08-24T11:37:04.932Z,29.97
2023-08-24T11:41:15.333Z,29.95
2023-08-24T11:45:19.028Z,30.00
2023-08-24T11:49:24.101Z,30.13
2023-08-24T11:53:29.707Z,30.26
2023-08-24T11:57:36.038Z,30.38
2023-08-24T12:01:40.582Z,30.48
2023-08-24T12:05:45.513Z,30.59
2023-08-24T12:09:49.015Z,30.63
2023-08-24T12:13:53.464Z,30.59
2023-08-24T12:17:57.408Z,30.60
2023-08-24T12:22:01.862Z,30.72
2023-08-24T12:26:09.101Z,30.88
2023-08-24T12:30:13.586Z,31.02
2023-08-24T12:34:18.040Z,31.05
2023-08-24T12:38:23.160Z,31.06
2023-08-24T12:42:26.711Z,31.07
2023-08-24T12:46:30.207Z,31.06
2023-08-24T12:50:33.670Z,31.03
2023-08-24T12:54:38.058Z,31.04
2023-08-24T12:58:43.234Z,31.02
2023-08-24T13:02:46.329Z,31.00
2023-08-24T13:06:49.957Z,31.05
2023-08-24T13:10:54.537Z,31.12
2023-08-24T13:14:57.981Z,31.17
2023-08-24T13:19:01.071Z,31.18
2023-08-24T13:23:04.751Z,31.20
2023-08-24T13:27:11.545Z,31.22
2023-08-24T13:31:15.559Z,31.24
2023-08-24T13:35:19.039Z,31.25
2023-08-24T13:39:22.982Z,31.25
2023-08-24T13:43:27.378Z,31.26
2023-08-24T13:47:31.324Z,31.30
2023-08-24T13:51:34.434Z,31.29
2023-08-24T13:55:39.598Z,31.28
2023-08-24T13:59:44.069Z,31.31
2023-08-24T14:03:47.971Z,31.34
2023-08-24T14:07:51.510Z,31.34
2023-08-24T14:11:55.018Z,31.27
2023-08-24T14:15:59.475Z,31.26
2023-08-24T14:20:05.684Z,31.26
2023-08-24T14:24:08.753Z,31.21
2023-08-24T14:28:12.553Z,31.22
2023-08-24T14:32:16.998Z,31.26
2023-08-24T14:36:21.840Z,31.30
2023-08-24T14:40:25.011Z,31.34
2023-08-24T14:44:28.531Z,31.33
2023-08-24T14:48:33.075Z,31.32
2023-08-24T14:52:37.270Z,31.31
2023-08-24T14:56:40.293Z,31.31
2023-08-24T15:00:44.478Z,31.27
2023-08-24T15:04:48.832Z,31.24
2023-08-24T15:08:52.387Z,31.21
2023-08-24T15:12:55.426Z,31.18
2023-08-24T15:16:59.484Z,31.13
2023-08-24T15:21:03.991Z,31.05
2023-08-24T15:25:09.220Z,30.97
2023-08-24T15:29:16.329Z,30.91
2023-08-24T15:33:21.600Z,30.84
2023-08-24T15:37:26.096Z,30.80
2023-08-24T15:41:31.556Z,30.74
2023-08-24T15:45:35.240Z,30.69
2023-08-24T15:49:39.294Z,30.68
2023-08-24T15:53:43.666Z,30.60
2023-08-24T15:57:46.984Z,30.55
2023-08-24T16:01:50.058Z,30.48
2023-08-24T16:05:58.771Z,30.43
2023-08-24T16:10:06.342Z,30.32
2023-08-24T16:14:12.908Z,30.30
2023-08-24T16:18:15.944Z,30.28
2023-08-24T16:22:19.827Z,30.22
2023-08-24T16:26:24.342Z,30.18
2023-08-24T16:30:28.190Z,30.15
2023-08-24T16:34:31.186Z,30.12
2023-08-24T16:38:35.073Z,30.08
2023-08-24T16:42:39.913Z,30.04
2023-08-24T16:46:43.759Z,29.99
2023-08-24T16:50:47.064Z,29.93
2023-08-24T16:54:51.764Z,29.89
2023-08-24T16:58:56.218Z,29.87
2023-08-24T17:03:00.233Z,29.82
2023-08-24T17:07:03.444Z,29.79
2023-08-24T17:11:07.351Z,29.78
2023-08-24T17:15:12.241Z,29.72
2023-08-24T17:19:16.340Z,29.65
2023-08-24T17:23:19.494Z,29.62
2023-08-24T17:27:23.295Z,29.55
2023-08-24T17:31:27.726Z,29.50
2023-08-24T17:35:32.008Z,29.44
2023-08-24T17:39:35.012Z,29.39
2023-08-24T17:43:41.923Z,29.32
2023-08-24T17:47:46.632Z,29.26
2023-08-24T17:51:50.615Z,29.21
2023-08-24T17:55:54.680Z,29.16
2023-08-24T17:59:59.472Z,29.13
2023-08-24T18:04:08.395Z,29.02
2023-08-24T18:08:12.683Z,28.94
2023-08-24T18:12:16.058Z,28.86
2023-08-24T18:16:20.126Z,28.77
2023-08-24T18:20:24.526Z,28.67
2023-08-24T18:24:28.761Z,28.58
2023-08-24T18:28:31.789Z,28.50
2023-08-24T18:32:35.717Z,28.41
2023-08-24T18:36:40.156Z,28.32
2023-08-24T18:40:48.854Z,28.22
2023-08-24T18:44:54.613Z,28.12
2023-08-24T18:48:58.477Z,28.04
2023-08-24T18:53:02.841Z,27.94
2023-08-24T18:57:06.359Z,27.82
2023-08-24T19:01:15.715Z,27.75
2023-08-24T19:05:19.785Z,27.67
2023-08-24T19:09:24.163Z,27.61
2023-08-24T19:13:28.933Z,27.58
2023-08-24T19:17:32.060Z,27.50
2023-08-24T19:21:35.898Z,27.41
2023-08-24T19:25:40.276Z,27.37
2023-08-24T19:29:44.924Z,27.31
2023-08-24T19:33:47.994Z,27.22
2023-08-24T19:37:52.130Z,27.14
2023-08-24T19:42:00.161Z,27.06
2023-08-24T19:46:05.754Z,27.01
2023-08-24T19:50:09.814Z,26.94
2023-08-24T19:54:13.704Z,26.85
2023-08-24T19:58:18.262Z,26.80
2023-08-24T20:02:22.197Z,26.77
2023-08-24T20:06:27.625Z,26.70
2023-08-24T20:10:32.212Z,26.66
2023-08-24T20:14:37.235Z,26.59
2023-08-24T20:18:41.606Z,26.48
2023-08-24T20:22:45.281Z,26.36
2023-08-24T20:26:49.134Z,26.28
2023-08-24T20:30:53.801Z,26.20
2023-08-24T20:34:57.865Z,26.12
2023-08-24T20:39:00.918Z,26.09
2023-08-24T20:43:05.082Z,26.06
2023-08-24T20:47:09.607Z,25.99
2023-08-24T20:51:13.518Z,25.93
2023-08-24T20:55:16.773Z,25.89
2023-08-24T20:59:20.284Z,25.84
2023-08-24T21:03:24.901Z,25.84
2023-08-24T21:07:30.497Z,25.79
2023-08-24T21:11:47.655Z,25.75
2023-08-24T21:15:51.623Z,25.68
2023-08-24T21:19:56.173Z,25.64
2023-08-24T21:24:00.275Z,25.63
2023-08-24T21:28:03.598Z,25.59
2023-08-24T21:32:07.390Z,25.54
2023-08-24T21:36:14.296Z,25.52
2023-08-24T21:40:23.977Z,25.47
2023-08-24T21:44:27.335Z,25.42
2023-08-24T21:48:31.243Z,25.37
2023-08-24T21:52:35.714Z,25.35
2023-08-24T21:56:39.212Z,25.31
2023-08-24T22:00:42.222Z,25.28
2023-08-24T22:04:46.554Z,25.22
2023-08-24T22:08:51.594Z,25.16
2023-08-24T22:12:55.658Z,25.16
2023-08-24T22:16:59.150Z,25.14
2023-08-24T22:21:03.542Z,25.12
2023-08-24T22:25:08.737Z,25.09
2023-08-24T22:29:12.578Z,25.04
2023-08-24T22:33:15.796Z,24.99
2023-08-24T22:37:19.787Z,24.94
2023-08-24T22:41:24.445Z,24.86
2023-08-24T22:45:39.506Z,24.81
2023-08-24T22:49:42.704Z,24.80
2023-08-24T22:53:46.353Z,24.78
2023-08-24T22:57:51.144Z,24.79
2023-08-24T23:01:55.243Z,24.80
2023-08-24T23:05:58.603Z,24.78
2023-08-24T23:10:02.637Z,24.75
2023-08-24T23:14:09.062Z,24.73
2023-08-24T23:18:12.558Z,24.70
2023-08-24T23:22:15.804Z,24.66
2023-08-24T23:26:19.910Z,24.58
2023-08-24T23:30:26.456Z,24.53
2023-08-24T23:34:30.095Z,24.48
2023-08-24T23:38:33.254Z,24.43
2023-08-24T23:42:37.150Z,24.38
2023-08-24T23:46:41.586Z,24.33
2023-08-24T23:50:45.338Z,24.30
2023-08-24T23:54:48.362Z,24.30
2023-08-24T23:58:53.146Z,24.33
